Lazear, Colorado
Current Conditions -  °F | °C
As of 3:55 PM on Thursday 27 Nov 2014 (Local Time) from KAJZ Reporting Station
Clear Clear  
Wind Chill: 58°   Ceiling: Unl
Heat Index: 58°   Visibility: 10mi
Dew Point: 25°   Wind: 6mph
Humidity: 29%   Direction: 210°SSW
Pressure: 30.32"   Gusts: NA
Location:  38.78°N, 107.78°W
Report Text: KAJZ 272255Z AUTO 21005KT 10SM CLR 14/M04 A3032 RMK AO2 T01421038
Loading
Personal Weather Stations






























Interactive Weather Map New forecast layout! Learn more

10-Day Weather Forecast

Advertisements
Track Severe Weather on mobile